createdAt,value
2019-05-19T00:00:49.123Z,19.99
2019-05-19T00:03:17.424Z,20.03
2019-05-19T00:05:45.687Z,19.84
2019-05-19T00:08:13.971Z,20.14
2019-05-19T00:10:42.230Z,19.84
2019-05-19T00:13:10.529Z,19.72
2019-05-19T00:15:38.783Z,20.16
2019-05-19T00:18:07.106Z,19.51
2019-05-19T00:20:35.474Z,19.55
2019-05-19T00:23:03.758Z,19.72
2019-05-19T00:25:32.787Z,19.64
2019-05-19T00:28:01.119Z,19.38
2019-05-19T00:30:29.389Z,19.27
2019-05-19T00:32:57.664Z,19.62
2019-05-19T00:35:25.968Z,19.64
2019-05-19T00:37:54.293Z,19.29
2019-05-19T00:40:22.549Z,19.47
2019-05-19T00:42:50.810Z,19.80
2019-05-19T00:45:19.188Z,19.77
2019-05-19T00:47:47.529Z,19.83
2019-05-19T00:50:15.940Z,19.33
2019-05-19T00:52:44.292Z,19.60
2019-05-19T00:55:12.642Z,19.54
2019-05-19T00:57:41.055Z,19.83
2019-05-19T01:00:09.835Z,19.63
2019-05-19T01:02:38.112Z,19.49
2019-05-19T01:05:07.407Z,19.83
2019-05-19T01:07:36.703Z,19.87
2019-05-19T01:10:08.607Z,20.01
2019-05-19T01:12:36.860Z,19.68
2019-05-19T01:15:09.767Z,19.45
2019-05-19T01:17:38.208Z,19.16
2019-05-19T01:20:10.609Z,19.38
2019-05-19T01:22:38.998Z,19.63
2019-05-19T01:25:07.991Z,19.63
2019-05-19T01:27:36.326Z,19.88
2019-05-19T01:30:11.385Z,19.47
2019-05-19T01:32:39.658Z,19.40
2019-05-19T01:35:08.497Z,19.72
2019-05-19T01:37:37.870Z,19.59
2019-05-19T01:40:07.965Z,19.48
2019-05-19T01:42:36.609Z,19.52
2019-05-19T01:45:06.875Z,19.40
2019-05-19T01:47:35.163Z,18.65
2019-05-19T01:50:16.831Z,19.38
2019-05-19T01:52:35.115Z,19.43
2019-05-19T01:55:04.489Z,18.96
2019-05-19T01:57:33.804Z,18.77
2019-05-19T02:00:03.148Z,18.99
2019-05-19T02:02:31.837Z,19.53
2019-05-19T02:05:00.134Z,19.76
2019-05-19T02:07:28.417Z,19.60
2019-05-19T02:09:56.670Z,18.79
2019-05-19T02:12:25.922Z,18.55
2019-05-19T02:14:55.212Z,18.58
2019-05-19T02:17:23.469Z,19.55
2019-05-19T02:19:51.808Z,19.49
2019-05-19T02:22:21.067Z,19.36
2019-05-19T02:24:49.327Z,19.53
2019-05-19T02:27:17.643Z,19.84
2019-05-19T02:29:45.958Z,19.87
2019-05-19T02:32:14.228Z,19.64
2019-05-19T02:34:43.507Z,19.10
2019-05-19T02:37:11.772Z,18.89
2019-05-19T02:39:40.033Z,18.92
2019-05-19T02:42:08.572Z,18.92
2019-05-19T02:44:36.890Z,18.46
2019-05-19T02:47:05.629Z,19.05
2019-05-19T02:49:35.102Z,19.21
2019-05-19T02:52:04.641Z,18.87
2019-05-19T02:54:33.676Z,18.96
2019-05-19T02:57:03.244Z,18.44
2019-05-19T02:59:32.173Z,18.79
2019-05-19T03:02:02.106Z,18.73
2019-05-19T03:04:30.459Z,18.74
2019-05-19T03:06:58.773Z,18.09
2019-05-19T03:09:28.114Z,18.09
2019-05-19T03:11:56.379Z,17.94
2019-05-19T03:14:24.810Z,18.32
2019-05-19T03:16:53.152Z,18.34
2019-05-19T03:19:21.421Z,18.64
2019-05-19T03:21:51.720Z,18.39
2019-05-19T03:24:20.108Z,18.79
2019-05-19T03:26:49.233Z,19.23
2019-05-19T03:29:19.220Z,19.07
2019-05-19T03:31:58.518Z,19.41
2019-05-19T03:34:27.648Z,19.26
2019-05-19T03:36:55.945Z,19.32
2019-05-19T03:39:24.689Z,19.12
2019-05-19T03:41:52.947Z,18.63
2019-05-19T03:44:21.223Z,18.49
2019-05-19T03:46:49.509Z,18.99
2019-05-19T03:49:17.773Z,18.55
2019-05-19T03:51:46.030Z,18.65
2019-05-19T03:54:14.317Z,18.67
2019-05-19T03:56:42.609Z,18.93
2019-05-19T03:59:10.957Z,18.02
2019-05-19T04:01:39.302Z,18.03
2019-05-19T04:04:09.628Z,18.28
2019-05-19T04:06:37.920Z,18.40
2019-05-19T04:09:07.670Z,18.29
2019-05-19T04:11:36.070Z,18.78
2019-05-19T04:14:04.396Z,19.02
2019-05-19T04:16:32.658Z,18.72
2019-05-19T04:19:00.931Z,18.39
2019-05-19T04:21:38.793Z,18.12
2019-05-19T04:23:59.239Z,18.60
2019-05-19T04:26:28.560Z,18.59
2019-05-19T04:28:56.816Z,18.22
2019-05-19T04:31:26.336Z,18.33
2019-05-19T04:33:54.625Z,18.55
2019-05-19T04:36:22.892Z,19.10
2019-05-19T04:38:51.166Z,18.70
2019-05-19T04:41:19.435Z,18.53
2019-05-19T04:43:47.705Z,18.72
2019-05-19T04:46:16.997Z,18.99
2019-05-19T04:48:45.266Z,18.57
2019-05-19T04:51:13.809Z,18.72
2019-05-19T04:53:42.033Z,18.97
2019-05-19T04:56:10.308Z,18.09
2019-05-19T04:58:38.604Z,17.35
2019-05-19T05:01:06.869Z,17.48
2019-05-19T05:03:35.145Z,17.20
2019-05-19T05:06:03.431Z,17.80
2019-05-19T05:08:31.701Z,18.11
2019-05-19T05:10:59.983Z,18.49
2019-05-19T05:13:28.263Z,17.56
2019-05-19T05:15:56.531Z,17.90
2019-05-19T05:18:26.858Z,18.46
2019-05-19T05:20:55.152Z,18.61
2019-05-19T05:23:23.411Z,18.61
2019-05-19T05:25:51.682Z,18.66
2019-05-19T05:28:19.990Z,18.62
2019-05-19T05:30:48.273Z,18.58
2019-05-19T05:33:16.539Z,18.83
2019-05-19T05:35:44.822Z,17.98
2019-05-19T05:38:13.093Z,18.23
2019-05-19T05:40:42.391Z,18.20
2019-05-19T05:43:10.691Z,17.93
2019-05-19T05:45:38.956Z,18.74
2019-05-19T05:48:07.251Z,19.00
2019-05-19T05:50:35.521Z,18.90
2019-05-19T05:53:03.790Z,18.80
2019-05-19T05:55:32.070Z,18.99
2019-05-19T05:58:00.306Z,17.96
2019-05-19T06:00:28.591Z,18.37
2019-05-19T06:02:56.875Z,18.29
2019-05-19T06:05:25.171Z,17.99
2019-05-19T06:07:53.441Z,17.82
2019-05-19T06:10:21.731Z,19.01
2019-05-19T06:12:49.981Z,19.21
2019-05-19T06:15:18.257Z,18.34
2019-05-19T06:17:46.543Z,19.33
2019-05-19T06:20:16.857Z,19.47
2019-05-19T06:22:56.023Z,19.32
2019-05-19T06:25:15.267Z,19.12
2019-05-19T06:27:43.540Z,19.11
2019-05-19T06:30:12.161Z,19.40
2019-05-19T06:32:45.043Z,18.97
2019-05-19T06:35:13.855Z,18.72
2019-05-19T06:37:42.166Z,18.56
2019-05-19T06:40:10.797Z,19.44
2019-05-19T06:42:40.163Z,18.82
2019-05-19T06:45:08.782Z,18.99
2019-05-19T06:47:37.159Z,18.06
2019-05-19T06:50:07.255Z,18.81
2019-05-19T06:52:35.521Z,18.83
2019-05-19T06:55:05.223Z,18.80
2019-05-19T06:57:33.542Z,19.32
2019-05-19T07:00:01.823Z,19.34
2019-05-19T07:02:30.096Z,19.33
2019-05-19T07:04:58.378Z,19.50
2019-05-19T07:07:26.635Z,20.44
2019-05-19T07:09:58.591Z,20.46
2019-05-19T07:12:24.910Z,20.54
2019-05-19T07:14:53.178Z,19.77
2019-05-19T07:17:21.437Z,20.17
2019-05-19T07:19:49.711Z,20.47
2019-05-19T07:22:17.988Z,20.83
2019-05-19T07:24:46.270Z,20.50
2019-05-19T07:27:14.560Z,21.11
2019-05-19T07:29:42.839Z,20.99
2019-05-19T07:32:11.111Z,20.71
2019-05-19T07:34:39.413Z,20.61
2019-05-19T07:37:07.732Z,20.87
2019-05-19T07:39:36.027Z,21.35
2019-05-19T07:42:04.366Z,21.13
2019-05-19T07:44:32.622Z,20.42
2019-05-19T07:47:00.914Z,20.79
2019-05-19T07:49:29.200Z,20.54
2019-05-19T07:51:57.654Z,20.96
2019-05-19T07:54:26.026Z,20.94
2019-05-19T07:56:54.280Z,21.36
2019-05-19T07:59:22.557Z,21.09
2019-05-19T08:01:50.889Z,20.68
2019-05-19T08:04:19.292Z,20.71
2019-05-19T08:06:47.726Z,20.94
2019-05-19T08:09:16.948Z,20.87
2019-05-19T08:11:45.243Z,20.74
2019-05-19T08:14:13.514Z,21.30
2019-05-19T08:16:41.821Z,21.27
2019-05-19T08:19:10.164Z,20.65
2019-05-19T08:21:38.443Z,20.88
2019-05-19T08:24:07.286Z,20.56
2019-05-19T08:26:36.484Z,20.69
2019-05-19T08:29:04.855Z,20.59
2019-05-19T08:31:33.463Z,21.07
2019-05-19T08:34:01.774Z,21.00
2019-05-19T08:36:30.104Z,20.98
2019-05-19T08:38:58.415Z,20.79
2019-05-19T08:41:26.815Z,20.93
2019-05-19T08:43:55.075Z,21.09
2019-05-19T08:46:23.354Z,20.88
2019-05-19T08:48:51.657Z,20.96
2019-05-19T08:51:19.926Z,21.28
2019-05-19T08:53:48.213Z,21.56
2019-05-19T08:56:16.476Z,21.56
2019-05-19T08:58:44.762Z,21.59
2019-05-19T09:01:13.031Z,21.62
2019-05-19T09:03:41.382Z,20.99
2019-05-19T09:06:09.672Z,20.77
2019-05-19T09:08:38.011Z,21.26
2019-05-19T09:11:06.303Z,21.29
2019-05-19T09:13:34.596Z,21.35
2019-05-19T09:16:04.276Z,21.45
2019-05-19T09:18:32.562Z,21.78
2019-05-19T09:21:00.824Z,21.89
2019-05-19T09:23:29.127Z,21.95
2019-05-19T09:25:57.444Z,21.90
2019-05-19T09:28:25.817Z,22.49
2019-05-19T09:30:54.101Z,22.18
2019-05-19T09:33:22.382Z,22.22
2019-05-19T09:35:50.643Z,22.66
2019-05-19T09:38:18.934Z,22.31
2019-05-19T09:40:47.193Z,21.96
2019-05-19T09:43:15.557Z,22.19
2019-05-19T09:45:43.877Z,21.84
2019-05-19T09:48:12.238Z,22.35
2019-05-19T09:50:40.527Z,22.84
2019-05-19T09:53:08.822Z,23.06
2019-05-19T09:55:37.048Z,22.97
2019-05-19T09:58:05.367Z,22.54
2019-05-19T10:00:34.632Z,22.32
2019-05-19T10:03:02.916Z,22.63
2019-05-19T10:05:31.190Z,23.25
2019-05-19T10:07:59.455Z,23.62
2019-05-19T10:10:51.938Z,24.16
2019-05-19T10:13:20.661Z,24.40
2019-05-19T10:15:49.007Z,23.61
2019-05-19T10:18:19.210Z,23.94
2019-05-19T10:20:50.305Z,24.33
2019-05-19T10:23:17.478Z,23.81
2019-05-19T10:25:45.734Z,24.28
2019-05-19T10:28:14.024Z,24.50
2019-05-19T10:30:42.280Z,24.69
2019-05-19T10:33:10.570Z,24.93
2019-05-19T10:35:38.856Z,24.92
2019-05-19T10:38:07.211Z,24.54
2019-05-19T10:40:35.475Z,24.49
2019-05-19T10:43:03.888Z,24.79
2019-05-19T10:45:32.150Z,25.50
2019-05-19T10:48:00.436Z,25.98
2019-05-19T10:50:28.703Z,26.67
2019-05-19T10:52:56.987Z,25.99
2019-05-19T10:55:35.961Z,25.37
2019-05-19T10:57:55.334Z,25.55
2019-05-19T11:00:23.732Z,25.72
2019-05-19T11:02:51.983Z,25.52
2019-05-19T11:05:20.268Z,25.02
2019-05-19T11:07:48.555Z,25.65
2019-05-19T11:10:16.818Z,25.61
2019-05-19T11:12:46.924Z,26.15
2019-05-19T11:15:15.362Z,25.63
2019-05-19T11:17:43.712Z,26.58
2019-05-19T11:20:12.045Z,26.77
2019-05-19T11:22:40.311Z,26.06
2019-05-19T11:25:08.770Z,26.36
2019-05-19T11:27:37.018Z,27.08
2019-05-19T11:30:06.748Z,27.37
2019-05-19T11:32:35.025Z,27.49
2019-05-19T11:35:03.766Z,28.02
2019-05-19T11:37:32.063Z,27.33
2019-05-19T11:40:00.452Z,27.80
2019-05-19T11:42:28.733Z,28.77
2019-05-19T11:44:57.025Z,29.23
2019-05-19T11:47:25.308Z,30.03
2019-05-19T11:49:53.611Z,29.63
2019-05-19T11:52:21.879Z,30.63
2019-05-19T11:54:50.170Z,30.87
2019-05-19T11:57:18.448Z,30.37
2019-05-19T11:59:46.711Z,30.45
2019-05-19T12:02:14.985Z,30.62
2019-05-19T12:04:43.264Z,30.07
2019-05-19T12:07:11.566Z,29.99
2019-05-19T12:09:47.269Z,31.48
2019-05-19T12:12:17.507Z,30.85
2019-05-19T12:14:45.969Z,32.30
2019-05-19T12:17:14.239Z,33.86
2019-05-19T12:19:42.490Z,32.77
2019-05-19T12:22:10.784Z,32.14
2019-05-19T12:24:39.123Z,34.25
2019-05-19T12:27:07.389Z,33.26
2019-05-19T12:29:35.644Z,34.17
2019-05-19T12:32:03.920Z,33.83
2019-05-19T12:34:32.421Z,34.62
2019-05-19T12:37:00.685Z,34.64
2019-05-19T12:39:29.089Z,34.06
2019-05-19T12:41:57.415Z,35.78
2019-05-19T12:44:25.695Z,37.10
2019-05-19T12:46:53.970Z,37.99
2019-05-19T12:49:22.249Z,35.21
2019-05-19T12:51:50.535Z,34.97
2019-05-19T12:54:18.831Z,34.52
2019-05-19T12:56:47.075Z,36.04
2019-05-19T12:59:15.364Z,34.08
2019-05-19T13:01:43.723Z,35.03
2019-05-19T13:04:12.072Z,39.15
2019-05-19T13:06:40.326Z,38.93
2019-05-19T13:09:09.665Z,39.16
2019-05-19T13:11:37.956Z,37.17
2019-05-19T13:14:06.307Z,34.11
2019-05-19T13:16:34.623Z,30.89
2019-05-19T13:19:02.904Z,34.89
2019-05-19T13:21:31.162Z,34.89
2019-05-19T13:23:59.482Z,35.29
2019-05-19T13:26:27.761Z,34.93
2019-05-19T13:28:56.020Z,37.58
2019-05-19T13:31:24.292Z,38.33
2019-05-19T13:33:52.563Z,38.75
2019-05-19T13:36:20.827Z,35.95
2019-05-19T13:38:49.095Z,32.04
2019-05-19T13:41:17.377Z,34.84
2019-05-19T13:43:45.678Z,36.29
2019-05-19T13:46:13.953Z,39.09
2019-05-19T13:48:42.233Z,38.40
2019-05-19T13:51:10.527Z,36.68
2019-05-19T13:53:38.836Z,32.68
2019-05-19T13:56:07.119Z,35.73
2019-05-19T13:58:35.412Z,36.03
2019-05-19T14:01:06.676Z,36.25
2019-05-19T14:03:34.950Z,34.88
2019-05-19T14:06:03.250Z,36.56
2019-05-19T14:08:32.558Z,38.64
2019-05-19T14:11:00.837Z,38.09
2019-05-19T14:13:29.096Z,36.84
2019-05-19T14:15:57.466Z,38.10
2019-05-19T14:18:25.848Z,37.62
2019-05-19T14:20:54.120Z,37.24
2019-05-19T14:23:22.427Z,39.07
2019-05-19T14:25:50.701Z,38.75
2019-05-19T14:28:18.966Z,37.99
2019-05-19T14:30:47.266Z,41.40
2019-05-19T14:33:15.518Z,39.14
2019-05-19T14:35:43.816Z,39.43
2019-05-19T14:38:12.075Z,39.58
2019-05-19T14:40:40.341Z,38.62
2019-05-19T14:43:08.655Z,36.97
2019-05-19T14:45:36.919Z,39.90
2019-05-19T14:48:06.270Z,39.60
2019-05-19T14:50:34.632Z,38.61
2019-05-19T14:53:02.899Z,39.36
2019-05-19T14:55:31.172Z,41.96
2019-05-19T14:57:59.441Z,40.79
2019-05-19T15:00:27.717Z,40.20
2019-05-19T15:02:55.980Z,41.11
2019-05-19T15:05:25.265Z,40.65
2019-05-19T15:07:53.562Z,40.93
2019-05-19T15:10:23.942Z,37.92
2019-05-19T15:12:53.855Z,38.22
2019-05-19T15:15:22.197Z,37.04
2019-05-19T15:17:50.546Z,39.96
2019-05-19T15:20:19.428Z,37.82
2019-05-19T15:22:47.716Z,39.61
2019-05-19T15:25:16.844Z,40.08
2019-05-19T15:27:59.335Z,34.86
2019-05-19T15:30:16.352Z,35.94
2019-05-19T15:32:44.700Z,37.98
2019-05-19T15:35:13.306Z,40.24
2019-05-19T15:37:41.680Z,39.36
2019-05-19T15:40:10.319Z,40.33
2019-05-19T15:42:46.631Z,40.95
2019-05-19T15:45:22.091Z,35.92
2019-05-19T15:47:53.627Z,34.39
2019-05-19T15:50:21.975Z,34.36
2019-05-19T15:52:50.231Z,34.31
2019-05-19T15:55:18.486Z,34.86
2019-05-19T15:58:15.732Z,35.90
2019-05-19T16:00:38.498Z,36.57
2019-05-19T16:03:07.896Z,39.21
2019-05-19T16:05:36.296Z,39.12
2019-05-19T16:08:04.821Z,39.20
2019-05-19T16:10:33.122Z,39.76
2019-05-19T16:13:01.384Z,37.04
2019-05-19T16:15:29.678Z,35.18
2019-05-19T16:17:57.967Z,33.37
2019-05-19T16:20:27.449Z,32.41
2019-05-19T16:22:56.683Z,32.62
2019-05-19T16:25:28.209Z,32.68
2019-05-19T16:27:59.808Z,32.74
2019-05-19T16:30:28.104Z,32.61
2019-05-19T16:32:56.495Z,32.27
2019-05-19T16:35:24.853Z,31.83
2019-05-19T16:37:53.109Z,31.79
2019-05-19T16:40:22.734Z,31.39
2019-05-19T16:42:51.165Z,29.35
2019-05-19T16:45:19.907Z,25.95
2019-05-19T16:47:48.246Z,29.00
2019-05-19T16:50:17.601Z,25.42
2019-05-19T16:52:45.898Z,26.53
2019-05-19T16:55:25.479Z,23.81
2019-05-19T16:57:54.119Z,24.49
2019-05-19T17:00:25.996Z,23.94
2019-05-19T17:02:54.369Z,29.19
2019-05-19T17:05:22.642Z,30.11
2019-05-19T17:07:50.921Z,30.16
2019-05-19T17:10:19.740Z,26.23
2019-05-19T17:12:48.018Z,26.08
2019-05-19T17:15:17.637Z,25.71
2019-05-19T17:17:46.963Z,25.89
2019-05-19T17:20:16.788Z,26.92
2019-05-19T17:22:45.105Z,26.53
2019-05-19T17:25:13.562Z,26.73
2019-05-19T17:27:41.845Z,27.12
2019-05-19T17:30:11.079Z,26.65
2019-05-19T17:32:39.440Z,27.02
2019-05-19T17:35:08.066Z,27.43
2019-05-19T17:37:36.460Z,26.73
2019-05-19T17:40:06.210Z,26.45
2019-05-19T17:42:37.174Z,27.29
2019-05-19T17:45:06.187Z,26.78
2019-05-19T17:47:34.663Z,26.19
2019-05-19T17:50:03.035Z,26.10
2019-05-19T17:52:32.290Z,26.06
2019-05-19T17:55:03.193Z,26.93
2019-05-19T17:57:33.142Z,26.72
2019-05-19T18:00:02.266Z,25.88
2019-05-19T18:02:30.615Z,26.16
2019-05-19T18:05:01.348Z,25.81
2019-05-19T18:07:29.683Z,26.01
2019-05-19T18:09:59.874Z,26.40
2019-05-19T18:12:28.170Z,26.36
2019-05-19T18:14:56.455Z,26.35
2019-05-19T18:17:24.748Z,26.10
2019-05-19T18:19:53.016Z,26.52
2019-05-19T18:22:21.278Z,25.44
2019-05-19T18:24:49.566Z,26.29
2019-05-19T18:27:17.824Z,25.55
2019-05-19T18:29:47.138Z,25.90
2019-05-19T18:32:15.414Z,25.45
2019-05-19T18:34:43.670Z,26.69
2019-05-19T18:37:13.527Z,26.85
2019-05-19T18:39:42.076Z,27.17
2019-05-19T18:42:13.098Z,27.29
2019-05-19T18:44:41.356Z,27.15
2019-05-19T18:47:09.660Z,26.20
2019-05-19T18:49:40.153Z,26.85
2019-05-19T18:52:08.461Z,26.30
2019-05-19T18:54:36.793Z,26.84
2019-05-19T18:57:06.117Z,26.77
2019-05-19T18:59:46.527Z,26.10
2019-05-19T19:02:06.418Z,25.61
2019-05-19T19:04:34.822Z,26.31
2019-05-19T19:07:03.148Z,25.87
2019-05-19T19:09:32.545Z,25.97
2019-05-19T19:12:02.368Z,26.48
2019-05-19T19:14:31.530Z,25.30
2019-05-19T19:17:01.813Z,24.83
2019-05-19T19:19:50.975Z,24.45
2019-05-19T19:22:25.383Z,25.13
2019-05-19T19:24:53.695Z,24.19
2019-05-19T19:27:22.072Z,24.53
2019-05-19T19:30:02.835Z,24.36
2019-05-19T19:32:21.376Z,24.07
2019-05-19T19:34:49.692Z,23.83
2019-05-19T19:37:18.961Z,24.41
2019-05-19T19:39:49.283Z,24.79
2019-05-19T19:42:17.640Z,23.89
2019-05-19T19:44:45.891Z,24.03
2019-05-19T19:47:14.141Z,24.31
2019-05-19T19:49:42.430Z,23.64
2019-05-19T19:52:11.097Z,23.47
2019-05-19T19:54:39.370Z,24.38
2019-05-19T19:57:12.270Z,24.77
2019-05-19T19:59:40.630Z,24.45
2019-05-19T20:02:08.921Z,24.48
2019-05-19T20:04:37.201Z,24.15
2019-05-19T20:07:07.118Z,24.27
2019-05-19T20:09:35.566Z,24.57
2019-05-19T20:12:06.431Z,24.35
2019-05-19T20:14:38.611Z,24.22
2019-05-19T20:17:07.266Z,24.38
2019-05-19T20:19:35.542Z,24.39
2019-05-19T20:22:03.812Z,24.26
2019-05-19T20:24:32.082Z,23.37
2019-05-19T20:27:03.539Z,23.01
2019-05-19T20:29:31.928Z,23.70
2019-05-19T20:32:00.210Z,24.24
2019-05-19T20:34:28.495Z,23.93
2019-05-19T20:36:56.850Z,23.56
2019-05-19T20:39:25.140Z,23.26
2019-05-19T20:41:54.964Z,23.64
2019-05-19T20:44:26.120Z,23.31
2019-05-19T20:46:54.392Z,23.04
2019-05-19T20:49:22.672Z,22.59
2019-05-19T20:51:53.904Z,22.92
2019-05-19T20:54:22.184Z,23.09
2019-05-19T20:56:50.446Z,23.14
2019-05-19T20:59:18.719Z,23.01
2019-05-19T21:01:59.204Z,23.31
2019-05-19T21:04:27.418Z,23.55
2019-05-19T21:06:58.539Z,23.80
2019-05-19T21:09:26.874Z,23.55
2019-05-19T21:11:57.634Z,22.93
2019-05-19T21:14:26.035Z,23.85
2019-05-19T21:16:54.477Z,23.88
2019-05-19T21:19:22.805Z,23.55
2019-05-19T21:21:51.073Z,23.74
2019-05-19T21:24:19.460Z,23.92
2019-05-19T21:26:47.790Z,24.06
2019-05-19T21:29:16.121Z,23.97
2019-05-19T21:31:44.403Z,24.03
2019-05-19T21:34:12.679Z,23.84
2019-05-19T21:36:40.952Z,23.28
2019-05-19T21:39:09.305Z,23.39
2019-05-19T21:41:37.635Z,22.26
2019-05-19T21:44:05.976Z,22.94
2019-05-19T21:46:34.276Z,23.51
2019-05-19T21:49:05.724Z,23.27
2019-05-19T21:54:36.791Z,23.04
2019-05-19T22:00:14.806Z,22.76
2019-05-19T22:02:43.079Z,22.97
2019-05-19T22:05:11.960Z,22.76
2019-05-19T22:07:47.772Z,22.64
2019-05-19T22:10:16.123Z,21.96
2019-05-19T22:12:46.073Z,22.35
2019-05-19T22:15:14.403Z,22.11
2019-05-19T22:17:43.690Z,22.39
2019-05-19T22:20:13.077Z,22.63
2019-05-19T22:22:41.303Z,22.33
2019-05-19T22:25:09.844Z,22.57
2019-05-19T22:27:39.278Z,22.80
2019-05-19T22:30:10.236Z,22.54
2019-05-19T22:32:38.498Z,22.58
2019-05-19T22:35:07.039Z,23.41
2019-05-19T22:37:37.277Z,23.49
2019-05-19T22:40:18.793Z,22.47
2019-05-19T22:42:47.108Z,22.03
2019-05-19T22:45:15.467Z,22.06
2019-05-19T22:47:43.732Z,22.21
2019-05-19T22:50:12.236Z,21.98
2019-05-19T22:52:40.503Z,21.89
2019-05-19T22:55:09.005Z,22.00
2019-05-19T22:57:37.397Z,21.98
2019-05-19T23:00:08.793Z,21.83
2019-05-19T23:02:38.119Z,21.20
2019-05-19T23:05:07.014Z,20.45
2019-05-19T23:07:35.618Z,19.80
2019-05-19T23:10:07.714Z,21.22
2019-05-19T23:12:37.069Z,21.18
2019-05-19T23:15:09.663Z,21.46
2019-05-19T23:17:38.862Z,21.64
2019-05-19T23:20:07.278Z,21.63
2019-05-19T23:22:35.623Z,21.52
2019-05-19T23:25:08.673Z,21.58
2019-05-19T23:27:36.959Z,21.27
2019-05-19T23:30:07.791Z,21.13
2019-05-19T23:32:37.125Z,21.09
2019-05-19T23:35:06.823Z,20.62
2019-05-19T23:37:35.151Z,21.02
2019-05-19T23:40:06.569Z,21.23
2019-05-19T23:42:35.107Z,20.81
2019-05-19T23:45:04.619Z,20.86
2019-05-19T23:47:32.891Z,20.66
2019-05-19T23:50:07.391Z,20.56
2019-05-19T23:52:35.645Z,20.66
2019-05-19T23:55:05.559Z,20.96
2019-05-19T23:57:34.740Z,20.90
